sensor_id;sensor_type;location;lat;lon;timestamp;P1;durP1;ratioP1;P2;durP2;ratioP2
18883;SDS011;9574;47.282;9.640;2023-07-28T00:02:04;2.57;;;1.73;;
18883;SDS011;9574;47.282;9.640;2023-07-28T00:04:33;4.13;;;1.67;;
18883;SDS011;9574;47.282;9.640;2023-07-28T00:07:02;3.97;;;1.70;;
18883;SDS011;9574;47.282;9.640;2023-07-28T00:09:29;4.57;;;1.80;;
18883;SDS011;9574;47.282;9.640;2023-07-28T00:11:57;2.83;;;1.90;;
18883;SDS011;9574;47.282;9.640;2023-07-28T00:14:24;1.70;;;1.53;;
18883;SDS011;9574;47.282;9.640;2023-07-28T00:16:51;3.07;;;1.50;;
18883;SDS011;9574;47.282;9.640;2023-07-28T00:19:18;2.77;;;1.60;;
18883;SDS011;9574;47.282;9.640;2023-07-28T00:21:46;1.83;;;1.53;;
18883;SDS011;9574;47.282;9.640;2023-07-28T00:24:15;2.73;;;1.47;;
18883;SDS011;9574;47.282;9.640;2023-07-28T00:26:42;6.43;;;1.70;;
18883;SDS011;9574;47.282;9.640;2023-07-28T00:29:09;3.67;;;1.83;;
18883;SDS011;9574;47.282;9.640;2023-07-28T00:31:36;3.03;;;1.80;;
18883;SDS011;9574;47.282;9.640;2023-07-28T00:34:03;4.23;;;1.90;;
18883;SDS011;9574;47.282;9.640;2023-07-28T00:36:30;3.37;;;1.83;;
18883;SDS011;9574;47.282;9.640;2023-07-28T00:38:57;2.67;;;1.60;;
18883;SDS011;9574;47.282;9.640;2023-07-28T00:41:26;2.07;;;1.60;;
18883;SDS011;9574;47.282;9.640;2023-07-28T00:43:53;3.80;;;1.80;;
18883;SDS011;9574;47.282;9.640;2023-07-28T00:46:20;2.53;;;1.60;;
18883;SDS011;9574;47.282;9.640;2023-07-28T00:48:47;2.63;;;1.40;;
18883;SDS011;9574;47.282;9.640;2023-07-28T00:51:14;2.23;;;1.50;;
18883;SDS011;9574;47.282;9.640;2023-07-28T00:53:42;2.17;;;1.70;;
18883;SDS011;9574;47.282;9.640;2023-07-28T00:56:10;2.60;;;1.63;;
18883;SDS011;9574;47.282;9.640;2023-07-28T00:58:38;1.90;;;1.60;;
18883;SDS011;9574;47.282;9.640;2023-07-28T01:01:06;3.60;;;1.67;;
18883;SDS011;9574;47.282;9.640;2023-07-28T01:03:32;2.17;;;1.63;;
18883;SDS011;9574;47.282;9.640;2023-07-28T01:06:13;2.23;;;1.37;;
18883;SDS011;9574;47.282;9.640;2023-07-28T01:08:46;4.23;;;1.80;;
18883;SDS011;9574;47.282;9.640;2023-07-28T01:11:18;2.23;;;1.77;;
18883;SDS011;9574;47.282;9.640;2023-07-28T01:13:47;6.73;;;1.80;;
18883;SDS011;9574;47.282;9.640;2023-07-28T01:16:14;1.83;;;1.50;;
18883;SDS011;9574;47.282;9.640;2023-07-28T01:18:41;4.87;;;2.03;;
18883;SDS011;9574;47.282;9.640;2023-07-28T01:21:09;1.37;;;1.13;;
18883;SDS011;9574;47.282;9.640;2023-07-28T01:23:47;5.47;;;1.67;;
18883;SDS011;9574;47.282;9.640;2023-07-28T01:26:30;2.60;;;1.60;;
18883;SDS011;9574;47.282;9.640;2023-07-28T01:28:58;2.57;;;1.53;;
18883;SDS011;9574;47.282;9.640;2023-07-28T01:31:26;2.30;;;1.30;;
18883;SDS011;9574;47.282;9.640;2023-07-28T01:33:53;1.53;;;1.30;;
18883;SDS011;9574;47.282;9.640;2023-07-28T01:36:20;2.60;;;1.53;;
18883;SDS011;9574;47.282;9.640;2023-07-28T01:38:48;1.93;;;1.17;;
18883;SDS011;9574;47.282;9.640;2023-07-28T01:41:15;2.83;;;1.90;;
18883;SDS011;9574;47.282;9.640;2023-07-28T01:43:43;1.73;;;1.37;;
18883;SDS011;9574;47.282;9.640;2023-07-28T01:46:10;1.80;;;1.37;;
18883;SDS011;9574;47.282;9.640;2023-07-28T01:48:37;3.57;;;1.60;;
18883;SDS011;9574;47.282;9.640;2023-07-28T01:51:04;2.23;;;1.60;;
18883;SDS011;9574;47.282;9.640;2023-07-28T01:53:31;2.20;;;1.60;;
18883;SDS011;9574;47.282;9.640;2023-07-28T01:55:58;2.33;;;1.60;;
18883;SDS011;9574;47.282;9.640;2023-07-28T01:58:26;2.13;;;1.73;;
18883;SDS011;9574;47.282;9.640;2023-07-28T02:00:54;2.00;;;1.57;;
18883;SDS011;9574;47.282;9.640;2023-07-28T02:03:21;2.73;;;1.50;;
18883;SDS011;9574;47.282;9.640;2023-07-28T02:05:48;1.73;;;1.40;;
18883;SDS011;9574;47.282;9.640;2023-07-28T02:08:15;2.90;;;1.40;;
18883;SDS011;9574;47.282;9.640;2023-07-28T02:10:43;3.60;;;1.50;;
18883;SDS011;9574;47.282;9.640;2023-07-28T02:13:10;1.83;;;1.40;;
18883;SDS011;9574;47.282;9.640;2023-07-28T02:15:37;2.27;;;1.67;;
18883;SDS011;9574;47.282;9.640;2023-07-28T02:18:05;2.53;;;1.73;;
18883;SDS011;9574;47.282;9.640;2023-07-28T02:20:32;1.43;;;1.30;;
18883;SDS011;9574;47.282;9.640;2023-07-28T02:23:00;3.37;;;1.50;;
18883;SDS011;9574;47.282;9.640;2023-07-28T02:25:27;2.50;;;1.60;;
18883;SDS011;9574;47.282;9.640;2023-07-28T02:27:54;2.80;;;1.60;;
18883;SDS011;9574;47.282;9.640;2023-07-28T02:30:21;2.53;;;1.70;;
18883;SDS011;9574;47.282;9.640;2023-07-28T02:32:48;4.13;;;1.60;;
18883;SDS011;9574;47.282;9.640;2023-07-28T02:35:17;1.83;;;1.40;;
18883;SDS011;9574;47.282;9.640;2023-07-28T02:37:44;1.83;;;1.40;;
18883;SDS011;9574;47.282;9.640;2023-07-28T02:40:11;1.87;;;1.47;;
18883;SDS011;9574;47.282;9.640;2023-07-28T02:42:39;2.27;;;1.60;;
18883;SDS011;9574;47.282;9.640;2023-07-28T02:45:06;1.17;;;1.07;;
18883;SDS011;9574;47.282;9.640;2023-07-28T02:47:35;1.60;;;1.30;;
18883;SDS011;9574;47.282;9.640;2023-07-28T02:50:02;2.27;;;1.50;;
18883;SDS011;9574;47.282;9.640;2023-07-28T02:52:31;2.37;;;1.40;;
18883;SDS011;9574;47.282;9.640;2023-07-28T02:54:57;1.73;;;1.23;;
18883;SDS011;9574;47.282;9.640;2023-07-28T02:57:24;1.63;;;1.25;;
18883;SDS011;9574;47.282;9.640;2023-07-28T02:59:51;3.03;;;1.83;;
18883;SDS011;9574;47.282;9.640;2023-07-28T03:02:18;2.70;;;1.60;;
18883;SDS011;9574;47.282;9.640;2023-07-28T03:04:45;2.03;;;1.53;;
18883;SDS011;9574;47.282;9.640;2023-07-28T03:07:12;5.13;;;1.87;;
18883;SDS011;9574;47.282;9.640;2023-07-28T03:09:41;2.20;;;1.70;;
18883;SDS011;9574;47.282;9.640;2023-07-28T03:12:08;2.03;;;1.47;;
18883;SDS011;9574;47.282;9.640;2023-07-28T03:14:35;1.63;;;1.40;;
18883;SDS011;9574;47.282;9.640;2023-07-28T03:17:02;2.90;;;1.47;;
18883;SDS011;9574;47.282;9.640;2023-07-28T03:19:29;1.60;;;1.30;;
18883;SDS011;9574;47.282;9.640;2023-07-28T03:21:56;2.07;;;1.43;;
18883;SDS011;9574;47.282;9.640;2023-07-28T03:24:23;2.13;;;1.33;;
18883;SDS011;9574;47.282;9.640;2023-07-28T03:26:52;2.17;;;1.60;;
18883;SDS011;9574;47.282;9.640;2023-07-28T03:29:19;2.60;;;2.00;;
18883;SDS011;9574;47.282;9.640;2023-07-28T03:31:46;6.77;;;1.80;;
18883;SDS011;9574;47.282;9.640;2023-07-28T03:34:13;2.17;;;1.50;;
18883;SDS011;9574;47.282;9.640;2023-07-28T03:36:40;5.87;;;1.70;;
18883;SDS011;9574;47.282;9.640;2023-07-28T03:39:06;3.73;;;1.40;;
18883;SDS011;9574;47.282;9.640;2023-07-28T03:41:33;2.43;;;1.70;;
18883;SDS011;9574;47.282;9.640;2023-07-28T03:44:02;4.37;;;1.70;;
18883;SDS011;9574;47.282;9.640;2023-07-28T03:46:29;2.07;;;1.57;;
18883;SDS011;9574;47.282;9.640;2023-07-28T03:48:56;2.33;;;1.63;;
18883;SDS011;9574;47.282;9.640;2023-07-28T03:51:25;2.00;;;1.40;;
18883;SDS011;9574;47.282;9.640;2023-07-28T03:53:52;2.27;;;1.60;;
18883;SDS011;9574;47.282;9.640;2023-07-28T03:56:19;2.63;;;1.65;;
18883;SDS011;9574;47.282;9.640;2023-07-28T03:58:46;2.47;;;1.38;;
18883;SDS011;9574;47.282;9.640;2023-07-28T04:01:14;1.65;;;1.40;;
18883;SDS011;9574;47.282;9.640;2023-07-28T04:03:41;2.33;;;1.50;;
18883;SDS011;9574;47.282;9.640;2023-07-28T04:06:09;2.88;;;1.52;;
18883;SDS011;9574;47.282;9.640;2023-07-28T04:08:37;1.45;;;1.23;;
18883;SDS011;9574;47.282;9.640;2023-07-28T04:11:04;2.00;;;1.40;;
18883;SDS011;9574;47.282;9.640;2023-07-28T04:13:31;2.40;;;1.35;;
18883;SDS011;9574;47.282;9.640;2023-07-28T04:15:59;5.15;;;1.60;;
18883;SDS011;9574;47.282;9.640;2023-07-28T04:18:27;1.40;;;1.23;;
18883;SDS011;9574;47.282;9.640;2023-07-28T04:20:54;3.67;;;2.20;;
18883;SDS011;9574;47.282;9.640;2023-07-28T04:23:21;2.57;;;1.70;;
18883;SDS011;9574;47.282;9.640;2023-07-28T04:25:48;1.60;;;1.40;;
18883;SDS011;9574;47.282;9.640;2023-07-28T04:28:15;2.73;;;1.57;;
18883;SDS011;9574;47.282;9.640;2023-07-28T04:30:42;2.77;;;2.07;;
18883;SDS011;9574;47.282;9.640;2023-07-28T04:33:09;2.33;;;1.70;;
18883;SDS011;9574;47.282;9.640;2023-07-28T04:35:37;5.00;;;2.00;;
18883;SDS011;9574;47.282;9.640;2023-07-28T04:38:04;2.43;;;1.77;;
18883;SDS011;9574;47.282;9.640;2023-07-28T04:40:31;2.87;;;2.23;;
18883;SDS011;9574;47.282;9.640;2023-07-28T04:42:58;3.90;;;1.90;;
18883;SDS011;9574;47.282;9.640;2023-07-28T04:45:25;2.80;;;1.87;;
18883;SDS011;9574;47.282;9.640;2023-07-28T04:47:52;2.13;;;1.73;;
18883;SDS011;9574;47.282;9.640;2023-07-28T04:50:19;2.53;;;1.80;;
18883;SDS011;9574;47.282;9.640;2023-07-28T04:52:47;4.40;;;1.70;;
18883;SDS011;9574;47.282;9.640;2023-07-28T04:55:14;5.07;;;2.10;;
18883;SDS011;9574;47.282;9.640;2023-07-28T04:57:41;2.90;;;1.83;;
18883;SDS011;9574;47.282;9.640;2023-07-28T05:00:08;3.60;;;2.37;;
18883;SDS011;9574;47.282;9.640;2023-07-28T05:02:36;2.40;;;1.70;;
18883;SDS011;9574;47.282;9.640;2023-07-28T05:05:03;4.40;;;1.90;;
18883;SDS011;9574;47.282;9.640;2023-07-28T05:07:30;1.67;;;1.30;;
18883;SDS011;9574;47.282;9.640;2023-07-28T05:09:58;2.73;;;1.80;;
18883;SDS011;9574;47.282;9.640;2023-07-28T05:12:25;2.90;;;2.00;;
18883;SDS011;9574;47.282;9.640;2023-07-28T05:14:53;1.87;;;1.67;;
18883;SDS011;9574;47.282;9.640;2023-07-28T05:17:20;3.53;;;1.60;;
18883;SDS011;9574;47.282;9.640;2023-07-28T05:19:47;2.47;;;1.90;;
18883;SDS011;9574;47.282;9.640;2023-07-28T05:22:14;3.50;;;1.97;;
18883;SDS011;9574;47.282;9.640;2023-07-28T05:24:40;2.88;;;1.92;;
18883;SDS011;9574;47.282;9.640;2023-07-28T05:27:10;2.90;;;1.97;;
18883;SDS011;9574;47.282;9.640;2023-07-28T05:29:37;4.15;;;1.90;;
18883;SDS011;9574;47.282;9.640;2023-07-28T05:32:05;2.60;;;1.77;;
18883;SDS011;9574;47.282;9.640;2023-07-28T05:34:32;3.77;;;1.87;;
18883;SDS011;9574;47.282;9.640;2023-07-28T05:36:59;2.00;;;1.73;;
18883;SDS011;9574;47.282;9.640;2023-07-28T05:39:26;2.53;;;1.77;;
18883;SDS011;9574;47.282;9.640;2023-07-28T05:41:53;2.37;;;1.70;;
18883;SDS011;9574;47.282;9.640;2023-07-28T05:44:21;2.30;;;1.80;;
18883;SDS011;9574;47.282;9.640;2023-07-28T05:46:48;2.60;;;1.73;;
18883;SDS011;9574;47.282;9.640;2023-07-28T05:49:15;3.33;;;1.83;;
18883;SDS011;9574;47.282;9.640;2023-07-28T05:51:42;2.97;;;1.75;;
18883;SDS011;9574;47.282;9.640;2023-07-28T05:54:09;2.10;;;1.60;;
18883;SDS011;9574;47.282;9.640;2023-07-28T05:56:39;2.47;;;1.70;;
18883;SDS011;9574;47.282;9.640;2023-07-28T05:59:06;2.15;;;1.67;;
18883;SDS011;9574;47.282;9.640;2023-07-28T06:01:35;4.50;;;1.50;;
18883;SDS011;9574;47.282;9.640;2023-07-28T06:04:02;2.13;;;1.70;;
18883;SDS011;9574;47.282;9.640;2023-07-28T06:06:29;2.45;;;2.00;;
18883;SDS011;9574;47.282;9.640;2023-07-28T06:08:56;4.55;;;1.98;;
18883;SDS011;9574;47.282;9.640;2023-07-28T06:11:23;4.97;;;2.20;;
18883;SDS011;9574;47.282;9.640;2023-07-28T06:13:51;3.13;;;2.00;;
18883;SDS011;9574;47.282;9.640;2023-07-28T06:16:18;2.83;;;2.07;;
18883;SDS011;9574;47.282;9.640;2023-07-28T06:18:46;1.95;;;1.65;;
18883;SDS011;9574;47.282;9.640;2023-07-28T06:21:13;2.17;;;1.70;;
18883;SDS011;9574;47.282;9.640;2023-07-28T06:23:40;1.83;;;1.42;;
18883;SDS011;9574;47.282;9.640;2023-07-28T06:26:07;3.43;;;2.10;;
18883;SDS011;9574;47.282;9.640;2023-07-28T06:28:34;2.30;;;1.83;;
18883;SDS011;9574;47.282;9.640;2023-07-28T06:31:02;2.08;;;1.88;;
18883;SDS011;9574;47.282;9.640;2023-07-28T06:33:29;7.85;;;4.40;;
18883;SDS011;9574;47.282;9.640;2023-07-28T06:35:57;4.72;;;3.13;;
18883;SDS011;9574;47.282;9.640;2023-07-28T06:38:24;4.10;;;3.63;;
18883;SDS011;9574;47.282;9.640;2023-07-28T06:40:52;4.57;;;2.17;;
18883;SDS011;9574;47.282;9.640;2023-07-28T06:43:19;2.88;;;1.90;;
18883;SDS011;9574;47.282;9.640;2023-07-28T06:45:46;2.90;;;2.00;;
18883;SDS011;9574;47.282;9.640;2023-07-28T06:48:13;4.07;;;1.80;;
18883;SDS011;9574;47.282;9.640;2023-07-28T06:50:40;5.00;;;2.60;;
18883;SDS011;9574;47.282;9.640;2023-07-28T06:53:08;2.90;;;2.10;;
18883;SDS011;9574;47.282;9.640;2023-07-28T06:55:35;4.10;;;2.83;;
18883;SDS011;9574;47.282;9.640;2023-07-28T06:58:04;4.00;;;2.50;;
18883;SDS011;9574;47.282;9.640;2023-07-28T07:00:31;3.08;;;2.38;;
18883;SDS011;9574;47.282;9.640;2023-07-28T07:02:58;2.92;;;2.20;;
18883;SDS011;9574;47.282;9.640;2023-07-28T07:05:25;3.53;;;2.03;;
18883;SDS011;9574;47.282;9.640;2023-07-28T07:07:52;3.47;;;2.38;;
18883;SDS011;9574;47.282;9.640;2023-07-28T07:10:21;2.67;;;2.00;;
18883;SDS011;9574;47.282;9.640;2023-07-28T07:12:48;3.28;;;1.95;;
18883;SDS011;9574;47.282;9.640;2023-07-28T07:15:15;3.03;;;1.85;;
18883;SDS011;9574;47.282;9.640;2023-07-28T07:17:42;3.40;;;2.05;;
18883;SDS011;9574;47.282;9.640;2023-07-28T07:20:09;4.68;;;2.00;;
18883;SDS011;9574;47.282;9.640;2023-07-28T07:22:37;4.68;;;2.42;;
18883;SDS011;9574;47.282;9.640;2023-07-28T07:25:04;2.22;;;1.80;;
18883;SDS011;9574;47.282;9.640;2023-07-28T07:27:33;2.28;;;1.70;;
18883;SDS011;9574;47.282;9.640;2023-07-28T07:30:00;2.22;;;1.80;;
18883;SDS011;9574;47.282;9.640;2023-07-28T07:32:28;2.70;;;2.00;;
18883;SDS011;9574;47.282;9.640;2023-07-28T07:34:55;3.40;;;2.13;;
18883;SDS011;9574;47.282;9.640;2023-07-28T07:37:21;2.60;;;1.83;;
18883;SDS011;9574;47.282;9.640;2023-07-28T07:39:48;3.92;;;1.77;;
18883;SDS011;9574;47.282;9.640;2023-07-28T07:42:16;2.90;;;1.98;;
18883;SDS011;9574;47.282;9.640;2023-07-28T07:44:44;3.70;;;1.88;;
18883;SDS011;9574;47.282;9.640;2023-07-28T07:47:11;2.10;;;1.77;;
18883;SDS011;9574;47.282;9.640;2023-07-28T07:49:39;4.00;;;2.22;;
18883;SDS011;9574;47.282;9.640;2023-07-28T07:52:06;2.75;;;2.10;;
18883;SDS011;9574;47.282;9.640;2023-07-28T07:54:34;4.03;;;2.25;;
18883;SDS011;9574;47.282;9.640;2023-07-28T07:57:01;3.13;;;1.85;;
18883;SDS011;9574;47.282;9.640;2023-07-28T07:59:28;3.20;;;2.08;;
18883;SDS011;9574;47.282;9.640;2023-07-28T08:01:59;2.67;;;1.90;;
18883;SDS011;9574;47.282;9.640;2023-07-28T08:04:28;6.25;;;2.03;;
18883;SDS011;9574;47.282;9.640;2023-07-28T08:06:56;3.47;;;2.38;;
18883;SDS011;9574;47.282;9.640;2023-07-28T08:09:23;3.78;;;2.13;;
18883;SDS011;9574;47.282;9.640;2023-07-28T08:11:50;3.10;;;1.95;;
18883;SDS011;9574;47.282;9.640;2023-07-28T08:14:18;3.22;;;1.95;;
18883;SDS011;9574;47.282;9.640;2023-07-28T08:16:45;6.25;;;2.47;;
18883;SDS011;9574;47.282;9.640;2023-07-28T08:19:13;3.03;;;2.13;;
18883;SDS011;9574;47.282;9.640;2023-07-28T08:21:40;2.35;;;2.00;;
18883;SDS011;9574;47.282;9.640;2023-07-28T08:24:07;3.10;;;1.77;;
18883;SDS011;9574;47.282;9.640;2023-07-28T08:26:34;2.92;;;1.98;;
18883;SDS011;9574;47.282;9.640;2023-07-28T08:29:01;4.72;;;2.33;;
18883;SDS011;9574;47.282;9.640;2023-07-28T08:31:28;2.95;;;2.17;;
18883;SDS011;9574;47.282;9.640;2023-07-28T08:33:55;5.00;;;2.03;;
18883;SDS011;9574;47.282;9.640;2023-07-28T08:36:23;3.25;;;2.10;;
18883;SDS011;9574;47.282;9.640;2023-07-28T08:38:50;3.45;;;1.95;;
18883;SDS011;9574;47.282;9.640;2023-07-28T08:41:17;2.83;;;1.98;;
18883;SDS011;9574;47.282;9.640;2023-07-28T08:43:44;3.40;;;1.80;;
18883;SDS011;9574;47.282;9.640;2023-07-28T08:46:11;2.67;;;1.52;;
18883;SDS011;9574;47.282;9.640;2023-07-28T08:48:39;2.90;;;1.85;;
18883;SDS011;9574;47.282;9.640;2023-07-28T08:51:06;3.85;;;2.28;;
18883;SDS011;9574;47.282;9.640;2023-07-28T08:53:35;3.83;;;1.83;;
18883;SDS011;9574;47.282;9.640;2023-07-28T08:56:03;2.45;;;1.70;;
18883;SDS011;9574;47.282;9.640;2023-07-28T08:58:30;6.35;;;1.75;;
18883;SDS011;9574;47.282;9.640;2023-07-28T09:00:57;2.55;;;1.90;;
18883;SDS011;9574;47.282;9.640;2023-07-28T09:03:26;3.22;;;2.03;;
18883;SDS011;9574;47.282;9.640;2023-07-28T09:05:54;3.03;;;2.00;;
18883;SDS011;9574;47.282;9.640;2023-07-28T09:08:25;2.33;;;1.63;;
18883;SDS011;9574;47.282;9.640;2023-07-28T09:10:54;2.47;;;1.70;;
18883;SDS011;9574;47.282;9.640;2023-07-28T09:13:21;6.25;;;2.20;;
18883;SDS011;9574;47.282;9.640;2023-07-28T09:15:49;3.30;;;1.90;;
18883;SDS011;9574;47.282;9.640;2023-07-28T09:18:16;3.55;;;1.85;;
18883;SDS011;9574;47.282;9.640;2023-07-28T09:20:44;4.60;;;2.38;;
18883;SDS011;9574;47.282;9.640;2023-07-28T09:23:12;3.42;;;1.92;;
18883;SDS011;9574;47.282;9.640;2023-07-28T09:25:41;2.10;;;1.80;;
18883;SDS011;9574;47.282;9.640;2023-07-28T09:28:09;2.83;;;2.13;;
18883;SDS011;9574;47.282;9.640;2023-07-28T09:30:43;3.42;;;2.20;;
18883;SDS011;9574;47.282;9.640;2023-07-28T09:33:12;3.20;;;2.15;;
18883;SDS011;9574;47.282;9.640;2023-07-28T09:35:49;2.72;;;1.80;;
18883;SDS011;9574;47.282;9.640;2023-07-28T09:38:16;3.95;;;1.90;;
18883;SDS011;9574;47.282;9.640;2023-07-28T09:40:45;2.90;;;2.00;;
18883;SDS011;9574;47.282;9.640;2023-07-28T09:43:14;3.00;;;2.00;;
18883;SDS011;9574;47.282;9.640;2023-07-28T09:45:42;5.93;;;2.05;;
18883;SDS011;9574;47.282;9.640;2023-07-28T09:48:09;2.70;;;2.00;;
18883;SDS011;9574;47.282;9.640;2023-07-28T09:50:38;2.45;;;1.95;;
18883;SDS011;9574;47.282;9.640;2023-07-28T09:53:08;3.58;;;2.15;;
18883;SDS011;9574;47.282;9.640;2023-07-28T09:55:37;4.93;;;2.45;;
18883;SDS011;9574;47.282;9.640;2023-07-28T09:58:07;4.28;;;2.10;;
18883;SDS011;9574;47.282;9.640;2023-07-28T10:00:39;3.67;;;1.83;;
18883;SDS011;9574;47.282;9.640;2023-07-28T10:03:07;2.40;;;1.80;;
18883;SDS011;9574;47.282;9.640;2023-07-28T10:05:35;3.58;;;2.30;;
18883;SDS011;9574;47.282;9.640;2023-07-28T10:08:03;3.63;;;2.13;;
18883;SDS011;9574;47.282;9.640;2023-07-28T10:10:31;4.07;;;2.42;;
18883;SDS011;9574;47.282;9.640;2023-07-28T10:12:58;2.63;;;2.08;;
18883;SDS011;9574;47.282;9.640;2023-07-28T10:15:29;3.33;;;2.17;;
18883;SDS011;9574;47.282;9.640;2023-07-28T10:17:58;6.13;;;2.40;;
18883;SDS011;9574;47.282;9.640;2023-07-28T10:20:29;4.43;;;1.98;;
18883;SDS011;9574;47.282;9.640;2023-07-28T10:23:03;5.35;;;2.20;;
18883;SDS011;9574;47.282;9.640;2023-07-28T10:25:34;3.30;;;2.17;;
18883;SDS011;9574;47.282;9.640;2023-07-28T10:28:03;3.70;;;2.13;;
18883;SDS011;9574;47.282;9.640;2023-07-28T10:30:34;5.68;;;2.20;;
18883;SDS011;9574;47.282;9.640;2023-07-28T10:33:06;5.10;;;2.10;;
18883;SDS011;9574;47.282;9.640;2023-07-28T10:35:53;3.75;;;2.05;;
18883;SDS011;9574;47.282;9.640;2023-07-28T10:38:33;2.90;;;2.15;;
18883;SDS011;9574;47.282;9.640;2023-07-28T10:41:05;6.60;;;2.22;;
18883;SDS011;9574;47.282;9.640;2023-07-28T10:43:33;2.80;;;1.90;;
18883;SDS011;9574;47.282;9.640;2023-07-28T10:46:00;3.60;;;2.25;;
18883;SDS011;9574;47.282;9.640;2023-07-28T10:48:29;4.15;;;1.88;;
18883;SDS011;9574;47.282;9.640;2023-07-28T10:50:56;3.08;;;2.03;;
18883;SDS011;9574;47.282;9.640;2023-07-28T10:53:23;3.30;;;1.98;;
18883;SDS011;9574;47.282;9.640;2023-07-28T10:55:49;4.10;;;1.92;;
18883;SDS011;9574;47.282;9.640;2023-07-28T10:58:16;2.50;;;1.90;;
18883;SDS011;9574;47.282;9.640;2023-07-28T11:00:45;5.63;;;1.98;;
18883;SDS011;9574;47.282;9.640;2023-07-28T11:03:12;2.38;;;1.85;;
18883;SDS011;9574;47.282;9.640;2023-07-28T11:05:40;3.40;;;1.90;;
18883;SDS011;9574;47.282;9.640;2023-07-28T11:08:07;2.65;;;1.80;;
18883;SDS011;9574;47.282;9.640;2023-07-28T11:10:34;3.13;;;1.70;;
18883;SDS011;9574;47.282;9.640;2023-07-28T11:13:02;2.78;;;1.60;;
18883;SDS011;9574;47.282;9.640;2023-07-28T11:15:31;3.30;;;1.90;;
18883;SDS011;9574;47.282;9.640;2023-07-28T11:17:59;3.88;;;1.80;;
18883;SDS011;9574;47.282;9.640;2023-07-28T11:20:26;2.60;;;2.15;;
18883;SDS011;9574;47.282;9.640;2023-07-28T11:22:56;2.22;;;1.67;;
18883;SDS011;9574;47.282;9.640;2023-07-28T11:25:24;1.77;;;1.65;;
18883;SDS011;9574;47.282;9.640;2023-07-28T11:27:52;2.25;;;1.70;;
18883;SDS011;9574;47.282;9.640;2023-07-28T11:30:20;3.35;;;1.90;;
18883;SDS011;9574;47.282;9.640;2023-07-28T11:32:49;5.70;;;2.05;;
18883;SDS011;9574;47.282;9.640;2023-07-28T11:35:17;2.15;;;1.63;;
18883;SDS011;9574;47.282;9.640;2023-07-28T11:37:46;3.28;;;2.10;;
18883;SDS011;9574;47.282;9.640;2023-07-28T11:40:17;2.53;;;1.67;;
18883;SDS011;9574;47.282;9.640;2023-07-28T11:42:45;2.22;;;1.80;;
18883;SDS011;9574;47.282;9.640;2023-07-28T11:45:14;2.40;;;1.83;;
18883;SDS011;9574;47.282;9.640;2023-07-28T11:47:51;2.28;;;1.77;;
18883;SDS011;9574;47.282;9.640;2023-07-28T11:50:22;2.78;;;1.67;;
18883;SDS011;9574;47.282;9.640;2023-07-28T11:52:49;2.05;;;1.70;;
18883;SDS011;9574;47.282;9.640;2023-07-28T11:55:18;5.93;;;1.88;;
18883;SDS011;9574;47.282;9.640;2023-07-28T11:57:47;4.55;;;1.98;;
18883;SDS011;9574;47.282;9.640;2023-07-28T12:00:14;3.13;;;2.20;;
18883;SDS011;9574;47.282;9.640;2023-07-28T12:02:43;4.75;;;1.90;;
18883;SDS011;9574;47.282;9.640;2023-07-28T12:05:14;3.90;;;2.28;;
18883;SDS011;9574;47.282;9.640;2023-07-28T12:07:46;2.40;;;1.85;;
18883;SDS011;9574;47.282;9.640;2023-07-28T12:10:14;4.00;;;2.10;;
18883;SDS011;9574;47.282;9.640;2023-07-28T12:12:44;2.53;;;2.22;;
18883;SDS011;9574;47.282;9.640;2023-07-28T12:15:19;2.95;;;2.03;;
18883;SDS011;9574;47.282;9.640;2023-07-28T12:20:45;2.50;;;1.75;;
18883;SDS011;9574;47.282;9.640;2023-07-28T12:23:13;3.97;;;2.03;;
18883;SDS011;9574;47.282;9.640;2023-07-28T12:25:41;3.78;;;1.90;;
18883;SDS011;9574;47.282;9.640;2023-07-28T12:28:10;2.95;;;1.90;;
18883;SDS011;9574;47.282;9.640;2023-07-28T12:30:38;2.22;;;2.03;;
18883;SDS011;9574;47.282;9.640;2023-07-28T12:33:05;3.58;;;2.20;;
18883;SDS011;9574;47.282;9.640;2023-07-28T12:35:33;3.05;;;1.80;;
18883;SDS011;9574;47.282;9.640;2023-07-28T12:38:01;3.15;;;2.15;;
18883;SDS011;9574;47.282;9.640;2023-07-28T12:40:29;2.78;;;2.10;;
18883;SDS011;9574;47.282;9.640;2023-07-28T12:42:57;3.25;;;2.30;;
18883;SDS011;9574;47.282;9.640;2023-07-28T12:45:26;3.15;;;2.40;;
18883;SDS011;9574;47.282;9.640;2023-07-28T12:47:53;3.47;;;2.20;;
18883;SDS011;9574;47.282;9.640;2023-07-28T12:50:21;2.83;;;2.13;;
18883;SDS011;9574;47.282;9.640;2023-07-28T12:52:48;3.70;;;2.03;;
18883;SDS011;9574;47.282;9.640;2023-07-28T12:55:15;2.15;;;1.88;;
18883;SDS011;9574;47.282;9.640;2023-07-28T12:57:43;4.20;;;2.25;;
18883;SDS011;9574;47.282;9.640;2023-07-28T13:00:13;2.33;;;2.13;;
18883;SDS011;9574;47.282;9.640;2023-07-28T13:02:43;4.45;;;2.47;;
18883;SDS011;9574;47.282;9.640;2023-07-28T13:05:11;4.10;;;2.17;;
18883;SDS011;9574;47.282;9.640;2023-07-28T13:07:40;3.92;;;2.10;;
18883;SDS011;9574;47.282;9.640;2023-07-28T13:10:08;2.70;;;1.98;;
18883;SDS011;9574;47.282;9.640;2023-07-28T13:12:36;2.35;;;2.15;;
18883;SDS011;9574;47.282;9.640;2023-07-28T13:15:04;3.13;;;1.90;;
18883;SDS011;9574;47.282;9.640;2023-07-28T13:17:31;3.65;;;2.20;;
18883;SDS011;9574;47.282;9.640;2023-07-28T13:20:00;4.13;;;2.42;;
18883;SDS011;9574;47.282;9.640;2023-07-28T13:22:27;3.42;;;2.08;;
18883;SDS011;9574;47.282;9.640;2023-07-28T13:24:54;4.70;;;2.10;;
18883;SDS011;9574;47.282;9.640;2023-07-28T13:27:21;5.10;;;1.80;;
18883;SDS011;9574;47.282;9.640;2023-07-28T13:29:48;4.93;;;2.33;;
18883;SDS011;9574;47.282;9.640;2023-07-28T13:32:15;3.35;;;2.20;;
18883;SDS011;9574;47.282;9.640;2023-07-28T13:34:43;2.20;;;1.83;;
18883;SDS011;9574;47.282;9.640;2023-07-28T13:37:12;3.58;;;2.50;;
18883;SDS011;9574;47.282;9.640;2023-07-28T13:39:39;2.88;;;2.38;;
18883;SDS011;9574;47.282;9.640;2023-07-28T13:42:07;3.53;;;2.08;;
18883;SDS011;9574;47.282;9.640;2023-07-28T13:44:34;2.53;;;2.00;;
18883;SDS011;9574;47.282;9.640;2023-07-28T13:47:01;2.20;;;1.83;;
18883;SDS011;9574;47.282;9.640;2023-07-28T13:49:28;3.75;;;2.47;;
18883;SDS011;9574;47.282;9.640;2023-07-28T13:51:55;2.65;;;2.10;;
18883;SDS011;9574;47.282;9.640;2023-07-28T13:54:24;3.00;;;2.13;;
18883;SDS011;9574;47.282;9.640;2023-07-28T13:56:51;2.78;;;1.90;;
18883;SDS011;9574;47.282;9.640;2023-07-28T13:59:18;3.03;;;2.72;;
18883;SDS011;9574;47.282;9.640;2023-07-28T14:01:44;4.25;;;2.60;;
18883;SDS011;9574;47.282;9.640;2023-07-28T14:04:12;2.95;;;2.20;;
18883;SDS011;9574;47.282;9.640;2023-07-28T14:06:39;4.10;;;2.47;;
18883;SDS011;9574;47.282;9.640;2023-07-28T14:09:06;3.30;;;2.50;;
18883;SDS011;9574;47.282;9.640;2023-07-28T14:11:34;4.90;;;2.80;;
18883;SDS011;9574;47.282;9.640;2023-07-28T14:14:01;3.03;;;2.30;;
18883;SDS011;9574;47.282;9.640;2023-07-28T14:16:28;2.72;;;2.50;;
18883;SDS011;9574;47.282;9.640;2023-07-28T14:18:55;2.80;;;2.60;;
18883;SDS011;9574;47.282;9.640;2023-07-28T14:21:22;2.63;;;2.10;;
18883;SDS011;9574;47.282;9.640;2023-07-28T14:23:49;3.85;;;1.90;;
18883;SDS011;9574;47.282;9.640;2023-07-28T14:26:16;2.92;;;2.28;;
18883;SDS011;9574;47.282;9.640;2023-07-28T14:28:45;2.83;;;2.17;;
18883;SDS011;9574;47.282;9.640;2023-07-28T14:31:11;3.05;;;2.28;;
18883;SDS011;9574;47.282;9.640;2023-07-28T14:33:38;2.90;;;2.38;;
18883;SDS011;9574;47.282;9.640;2023-07-28T14:36:05;2.78;;;2.38;;
18883;SDS011;9574;47.282;9.640;2023-07-28T14:38:33;4.07;;;2.25;;
18883;SDS011;9574;47.282;9.640;2023-07-28T14:41:00;2.63;;;2.25;;
18883;SDS011;9574;47.282;9.640;2023-07-28T14:43:26;2.63;;;2.30;;
18883;SDS011;9574;47.282;9.640;2023-07-28T14:45:55;3.35;;;1.77;;
18883;SDS011;9574;47.282;9.640;2023-07-28T14:48:22;6.10;;;2.63;;
18883;SDS011;9574;47.282;9.640;2023-07-28T14:50:49;3.47;;;2.40;;
18883;SDS011;9574;47.282;9.640;2023-07-28T14:53:28;2.65;;;2.25;;
18883;SDS011;9574;47.282;9.640;2023-07-28T14:56:00;4.95;;;2.47;;
18883;SDS011;9574;47.282;9.640;2023-07-28T14:58:27;3.85;;;2.30;;
18883;SDS011;9574;47.282;9.640;2023-07-28T15:00:56;2.50;;;2.28;;
18883;SDS011;9574;47.282;9.640;2023-07-28T15:03:25;3.17;;;2.22;;
18883;SDS011;9574;47.282;9.640;2023-07-28T15:05:53;4.13;;;2.70;;
18883;SDS011;9574;47.282;9.640;2023-07-28T15:08:20;4.00;;;2.28;;